Terminal Aerodrome Forecast
Issued by NWS Brownsville, TX

Home | Current Version | Previous Version | Text Only | Print | Product List | Glossary On
Versions: 1 2 3 4 5 6 7 8 9 10 11 12 13 14 15 16 17 18 19 20 21 22 23
000
FTUS44 KBRO 242333
TAFHRL
TAF
KHRL 242333Z 2500/2524 17020G26KT P6SM FEW060 SCT250
     FM250300 16012KT P6SM VCSH BKN030
     FM250900 14007KT 4SM BR BKN015 PROB30 2512/2515 2SM TSRA BR
      OVC010CB
     FM251500 15012KT P6SM VCSH BKN020
     FM251900 24010KT P6SM OVC030=

USA.gov is the U.S. government's official web portal to all federal, state and local government web resources and services.